createdAt,value
2022-10-12T00:00:57.675Z,9.57
2022-10-12T00:03:24.730Z,10.30
2022-10-12T00:06:00.369Z,8.73
2022-10-12T00:08:28.806Z,9.03
2022-10-12T00:10:55.938Z,8.10
2022-10-12T00:13:23.029Z,8.00
2022-10-12T00:15:50.165Z,7.60
2022-10-12T00:18:17.509Z,8.40
2022-10-12T00:20:44.694Z,8.80
2022-10-12T00:23:11.798Z,8.70
2022-10-12T00:25:40.809Z,10.27
2022-10-12T00:28:08.710Z,8.77
2022-10-12T00:30:39.683Z,9.50
2022-10-12T00:33:06.776Z,10.30
2022-10-12T00:35:33.847Z,9.57
2022-10-12T00:38:00.988Z,9.90
2022-10-12T00:40:28.162Z,10.50
2022-10-12T00:42:56.609Z,8.33
2022-10-12T00:45:24.557Z,8.33
2022-10-12T00:47:52.816Z,10.10
2022-10-12T00:50:22.039Z,8.87
2022-10-12T00:52:51.203Z,7.87
2022-10-12T00:55:19.657Z,8.00
2022-10-12T00:57:47.631Z,7.70
2022-10-12T01:00:16.891Z,7.10
2022-10-12T01:02:44.239Z,7.80
2022-10-12T01:05:11.939Z,8.40
2022-10-12T01:07:39.345Z,7.90
2022-10-12T01:10:07.142Z,8.80
2022-10-12T01:12:35.068Z,9.03
2022-10-12T01:15:02.217Z,7.93
2022-10-12T01:17:35.392Z,7.23
2022-10-12T01:20:15.719Z,7.63
2022-10-12T01:22:45.332Z,8.20
2022-10-12T01:25:17.878Z,7.47
2022-10-12T01:27:47.067Z,6.90
2022-10-12T01:30:17.172Z,7.70
2022-10-12T01:32:52.837Z,6.87
2022-10-12T01:35:22.290Z,6.67
2022-10-12T01:37:54.193Z,6.30
2022-10-12T01:40:24.637Z,6.57
2022-10-12T01:42:52.192Z,6.13
2022-10-12T01:45:20.700Z,6.27
2022-10-12T01:47:49.072Z,6.80
2022-10-12T01:50:17.365Z,6.20
2022-10-12T01:52:47.318Z,6.10
2022-10-12T01:55:27.741Z,7.23
2022-10-12T01:58:00.758Z,6.30
2022-10-12T02:00:30.464Z,5.33
2022-10-12T02:03:02.049Z,7.30
2022-10-12T02:05:35.169Z,6.00
2022-10-12T02:08:04.564Z,6.67
2022-10-12T02:10:35.911Z,6.27
2022-10-12T02:13:04.768Z,6.70
2022-10-12T02:15:34.066Z,6.50
2022-10-12T02:18:03.192Z,5.63
2022-10-12T02:20:31.541Z,6.33
2022-10-12T02:22:58.885Z,6.37
2022-10-12T02:25:26.667Z,6.30
2022-10-12T02:27:56.352Z,6.00
2022-10-12T02:30:23.534Z,7.00
2022-10-12T02:32:55.287Z,6.43
2022-10-12T02:35:24.679Z,5.80
2022-10-12T02:37:54.249Z,7.60
2022-10-12T02:40:23.889Z,6.80
2022-10-12T02:43:10.364Z,6.70
2022-10-12T02:45:39.076Z,6.80
2022-10-12T02:48:09.868Z,8.70
2022-10-12T02:50:37.390Z,6.30
2022-10-12T02:53:05.101Z,6.37
2022-10-12T02:55:32.206Z,7.17
2022-10-12T02:57:59.314Z,7.57
2022-10-12T03:00:26.493Z,6.70
2022-10-12T03:02:53.622Z,7.80
2022-10-12T03:05:22.044Z,8.43
2022-10-12T03:07:49.142Z,7.70
2022-10-12T03:10:16.268Z,7.80
2022-10-12T03:12:47.757Z,7.10
2022-10-12T03:15:17.024Z,7.10
2022-10-12T03:17:44.133Z,8.33
2022-10-12T03:20:11.640Z,7.87
2022-10-12T03:22:40.109Z,7.27
2022-10-12T03:25:07.457Z,6.80
2022-10-12T03:27:34.636Z,7.77
2022-10-12T03:30:01.770Z,7.60
2022-10-12T03:32:28.871Z,8.30
2022-10-12T03:34:55.977Z,7.40
2022-10-12T03:37:23.072Z,8.07
2022-10-12T03:39:51.501Z,6.53
2022-10-12T03:42:18.591Z,7.20
2022-10-12T03:44:45.719Z,7.40
2022-10-12T03:47:12.802Z,8.00
2022-10-12T03:49:39.914Z,8.20
2022-10-12T03:52:07.040Z,7.90
2022-10-12T03:54:34.206Z,8.43
2022-10-12T03:57:02.646Z,7.33
2022-10-12T03:59:29.721Z,9.20
2022-10-12T04:01:56.881Z,7.37
2022-10-12T04:04:23.975Z,7.57
2022-10-12T04:06:51.052Z,8.63
2022-10-12T04:09:18.162Z,7.93
2022-10-12T04:11:45.226Z,7.50
2022-10-12T04:14:13.660Z,8.87
2022-10-12T04:16:40.740Z,7.10
2022-10-12T04:19:07.834Z,7.33
2022-10-12T04:21:34.935Z,8.33
2022-10-12T04:24:02.083Z,6.87
2022-10-12T04:26:29.181Z,6.73
2022-10-12T04:28:56.347Z,6.23
2022-10-12T04:31:24.860Z,7.27
2022-10-12T04:33:53.130Z,6.73
2022-10-12T04:36:20.248Z,6.90
2022-10-12T04:38:47.368Z,8.23
2022-10-12T04:41:14.438Z,7.43
2022-10-12T04:43:41.528Z,6.80
2022-10-12T04:46:08.610Z,8.50
2022-10-12T04:48:37.038Z,7.40
2022-10-12T04:51:04.516Z,8.10
2022-10-12T04:53:31.673Z,7.83
2022-10-12T04:56:02.589Z,6.87
2022-10-12T04:58:29.891Z,7.37
2022-10-12T05:00:57.038Z,8.33
2022-10-12T05:03:24.429Z,7.40
2022-10-12T05:05:52.840Z,7.87
2022-10-12T05:08:19.959Z,7.90
2022-10-12T05:10:47.108Z,7.77
2022-10-12T05:13:14.562Z,8.13
2022-10-12T05:15:41.997Z,7.10
2022-10-12T05:18:09.101Z,9.43
2022-10-12T05:20:36.464Z,7.20
2022-10-12T05:23:04.947Z,7.60
2022-10-12T05:25:32.070Z,8.30
2022-10-12T05:27:59.198Z,8.00
2022-10-12T05:30:26.453Z,7.90
2022-10-12T05:32:53.570Z,7.57
2022-10-12T05:35:20.763Z,8.30
2022-10-12T05:37:47.894Z,8.17
2022-10-12T05:40:16.434Z,7.70
2022-10-12T05:42:43.522Z,7.97
2022-10-12T05:45:11.240Z,7.67
2022-10-12T05:47:38.663Z,9.00
2022-10-12T05:50:06.503Z,8.20
2022-10-12T05:52:33.719Z,8.80
2022-10-12T05:55:00.768Z,7.90
2022-10-12T05:57:29.202Z,8.50
2022-10-12T05:59:56.329Z,8.00
2022-10-12T06:02:23.432Z,8.90
2022-10-12T06:04:50.532Z,9.00
2022-10-12T06:07:17.621Z,10.27
2022-10-12T06:09:44.735Z,8.90
2022-10-12T06:12:11.851Z,8.83
2022-10-12T06:14:40.316Z,9.53
2022-10-12T06:17:07.410Z,9.50
2022-10-12T06:19:34.511Z,10.47
2022-10-12T06:22:01.665Z,10.00
2022-10-12T06:24:28.770Z,11.43
2022-10-12T06:26:55.869Z,9.13
2022-10-12T06:29:23.118Z,9.30
2022-10-12T06:31:52.074Z,8.87
2022-10-12T06:34:19.310Z,8.13
2022-10-12T06:36:46.425Z,6.80
2022-10-12T06:39:13.644Z,7.90
2022-10-12T06:41:40.734Z,8.50
2022-10-12T06:44:09.454Z,6.23
2022-10-12T06:46:36.565Z,5.87
2022-10-12T06:49:05.040Z,5.73
2022-10-12T06:51:32.152Z,5.90
2022-10-12T06:53:59.275Z,5.60
2022-10-12T06:56:26.346Z,6.70
2022-10-12T06:58:56.897Z,7.20
2022-10-12T07:01:24.077Z,5.67
2022-10-12T07:03:51.225Z,5.83
2022-10-12T07:06:19.675Z,6.60
2022-10-12T07:08:46.774Z,7.20
2022-10-12T07:11:14.209Z,7.07
2022-10-12T07:13:41.321Z,7.50
2022-10-12T07:16:08.640Z,6.73
2022-10-12T07:18:35.738Z,8.33
2022-10-12T07:21:02.980Z,6.93
2022-10-12T07:23:32.002Z,6.77
2022-10-12T07:25:59.280Z,6.90
2022-10-12T07:28:27.056Z,6.50
2022-10-12T07:30:54.339Z,5.03
2022-10-12T07:33:21.439Z,5.40
2022-10-12T07:36:12.702Z,5.03
2022-10-12T07:38:43.014Z,5.40
2022-10-12T07:41:10.123Z,5.53
2022-10-12T07:43:37.263Z,4.80
2022-10-12T07:46:04.690Z,5.60
2022-10-12T07:48:31.994Z,5.57
2022-10-12T07:51:03.561Z,5.17
2022-10-12T07:53:30.700Z,5.00
2022-10-12T07:56:02.011Z,4.60
2022-10-12T07:58:29.124Z,4.80
2022-10-12T08:00:56.227Z,4.60
2022-10-12T08:03:23.361Z,4.00
2022-10-12T08:05:50.447Z,3.83
2022-10-12T08:08:17.614Z,4.63
2022-10-12T08:10:44.688Z,5.03
2022-10-12T08:13:13.122Z,3.90
2022-10-12T08:15:40.230Z,4.00
2022-10-12T08:18:07.366Z,4.80
2022-10-12T08:20:34.463Z,4.57
2022-10-12T08:23:01.547Z,4.10
2022-10-12T08:25:28.616Z,4.87
2022-10-12T08:27:55.729Z,4.50
2022-10-12T08:30:24.122Z,4.23
2022-10-12T08:32:51.229Z,3.60
2022-10-12T08:35:18.304Z,3.70
2022-10-12T08:37:45.418Z,3.70
2022-10-12T08:40:15.272Z,3.47
2022-10-12T08:42:46.033Z,3.63
2022-10-12T08:45:25.502Z,4.37
2022-10-12T08:47:59.353Z,4.40
2022-10-12T08:50:30.110Z,5.20
2022-10-12T08:53:01.624Z,4.60
2022-10-12T08:55:32.370Z,4.60
2022-10-12T08:57:59.480Z,4.33
2022-10-12T09:00:27.597Z,4.73
2022-10-12T09:03:04.010Z,4.23
2022-10-12T09:05:34.722Z,5.00
2022-10-12T09:08:04.513Z,4.77
2022-10-12T09:10:37.854Z,4.57
2022-10-12T09:13:11.084Z,4.47
2022-10-12T09:15:39.611Z,4.30
2022-10-12T09:18:15.804Z,5.10
2022-10-12T09:20:46.635Z,3.50
2022-10-12T09:23:22.603Z,4.53
2022-10-12T09:25:49.694Z,3.90
2022-10-12T09:28:20.273Z,3.57
2022-10-12T09:30:53.534Z,4.33
2022-10-12T09:33:24.467Z,4.30
2022-10-12T09:35:53.480Z,3.47
2022-10-12T09:38:20.616Z,4.10
2022-10-12T09:40:48.047Z,4.33
2022-10-12T09:43:15.551Z,5.00
2022-10-12T09:45:43.073Z,4.50
2022-10-12T09:48:14.471Z,4.43
2022-10-12T09:50:44.650Z,4.90
2022-10-12T09:53:19.762Z,3.87
2022-10-12T09:55:52.418Z,4.33
2022-10-12T09:58:20.973Z,4.40
2022-10-12T10:01:08.081Z,4.03
2022-10-12T10:03:36.497Z,4.40
2022-10-12T10:06:04.535Z,4.17
2022-10-12T10:08:39.488Z,4.30
2022-10-12T10:11:06.883Z,3.77
2022-10-12T10:13:36.921Z,4.03
2022-10-12T10:16:05.514Z,5.10
2022-10-12T10:18:35.123Z,4.10
2022-10-12T10:21:04.811Z,4.20
2022-10-12T10:23:33.472Z,4.53
2022-10-12T10:26:05.320Z,4.27
2022-10-12T10:28:33.395Z,4.33
2022-10-12T10:31:01.558Z,5.50
2022-10-12T10:33:29.144Z,4.97
2022-10-12T10:35:59.007Z,4.53
2022-10-12T10:38:27.725Z,4.10
2022-10-12T10:40:56.426Z,4.33
2022-10-12T10:43:26.403Z,4.97
2022-10-12T10:45:55.047Z,4.80
2022-10-12T10:48:23.647Z,4.17
2022-10-12T10:50:52.390Z,4.50
2022-10-12T10:53:21.453Z,4.70
2022-10-12T10:55:52.770Z,5.10
2022-10-12T10:58:28.198Z,5.27
2022-10-12T11:00:57.459Z,4.33
2022-10-12T11:03:25.856Z,3.73
2022-10-12T11:05:56.952Z,4.97
2022-10-12T11:08:26.317Z,4.97
2022-10-12T11:10:56.374Z,5.03
2022-10-12T11:13:24.945Z,5.13
2022-10-12T11:15:55.077Z,4.90
2022-10-12T11:18:24.582Z,5.03
2022-10-12T11:20:53.671Z,4.97
2022-10-12T11:23:26.339Z,5.27
2022-10-12T11:26:00.624Z,4.97
2022-10-12T11:28:29.475Z,5.20
2022-10-12T11:30:56.782Z,5.90
2022-10-12T11:33:26.733Z,4.77
2022-10-12T11:35:54.949Z,5.53
2022-10-12T11:38:24.327Z,5.10
2022-10-12T11:41:13.932Z,5.10
2022-10-12T11:43:46.887Z,5.90
2022-10-12T11:46:16.285Z,4.60
2022-10-12T11:48:46.714Z,4.93
2022-10-12T11:51:13.825Z,5.60
2022-10-12T11:53:44.372Z,5.67
2022-10-12T11:56:16.159Z,6.50
2022-10-12T11:59:01.978Z,5.93
2022-10-12T12:01:44.193Z,5.17
2022-10-12T12:04:40.372Z,5.57
2022-10-12T12:07:04.381Z,4.80
2022-10-12T12:09:36.086Z,4.67
2022-10-12T12:12:14.165Z,5.57
2022-10-12T12:14:46.832Z,4.80
2022-10-12T12:17:21.277Z,6.20
2022-10-12T12:19:49.160Z,5.07
2022-10-12T12:22:20.307Z,4.73
2022-10-12T12:24:55.021Z,5.93
2022-10-12T12:27:24.169Z,6.53
2022-10-12T12:29:53.162Z,5.50
2022-10-12T12:32:20.657Z,5.63
2022-10-12T12:34:54.449Z,5.27
2022-10-12T12:37:26.986Z,5.60
2022-10-12T12:39:55.338Z,5.13
2022-10-12T12:42:24.011Z,5.23
2022-10-12T12:44:52.499Z,5.53
2022-10-12T12:47:44.063Z,5.27
2022-10-12T12:50:28.372Z,4.87
2022-10-12T12:53:01.653Z,4.80
2022-10-12T12:55:38.288Z,5.07
2022-10-12T12:58:26.046Z,3.80
2022-10-12T13:00:59.922Z,3.50
2022-10-12T13:03:36.075Z,4.10
2022-10-12T13:06:21.995Z,4.10
2022-10-12T13:09:01.961Z,4.00
2022-10-12T13:11:35.790Z,3.70
2022-10-12T13:14:08.731Z,4.13
2022-10-12T13:17:30.694Z,4.00
2022-10-12T13:19:34.130Z,4.93
2022-10-12T13:22:03.720Z,5.30
2022-10-12T13:24:32.500Z,4.63
2022-10-12T13:27:01.273Z,5.63
2022-10-12T13:29:34.045Z,4.70
2022-10-12T13:32:03.990Z,4.00
2022-10-12T13:34:37.049Z,4.27
2022-10-12T13:37:05.440Z,4.37
2022-10-12T13:39:38.784Z,3.90
2022-10-12T13:42:06.133Z,4.10
2022-10-12T13:44:35.367Z,4.47
2022-10-12T13:47:09.413Z,4.40
2022-10-12T13:49:42.484Z,3.33
2022-10-12T13:52:17.768Z,5.20
2022-10-12T13:54:45.543Z,4.30
2022-10-12T13:57:18.543Z,3.90
2022-10-12T13:59:45.670Z,5.07
2022-10-12T14:02:18.922Z,3.93
2022-10-12T14:04:46.065Z,4.50
2022-10-12T14:07:17.606Z,4.03
2022-10-12T14:09:46.129Z,5.27
2022-10-12T14:12:13.747Z,4.60
2022-10-12T14:14:41.849Z,6.17
2022-10-12T14:17:14.276Z,4.60
2022-10-12T14:19:46.261Z,5.20
2022-10-12T14:22:13.471Z,4.93
2022-10-12T14:24:40.769Z,4.50
2022-10-12T14:27:08.639Z,5.33
2022-10-12T14:29:40.879Z,5.20
2022-10-12T14:32:08.574Z,4.77
2022-10-12T14:34:42.818Z,5.73
2022-10-12T14:37:23.267Z,5.10
2022-10-12T14:39:50.692Z,4.77
2022-10-12T14:42:21.870Z,5.10
2022-10-12T14:44:49.129Z,5.37
2022-10-12T14:47:18.500Z,5.77
2022-10-12T14:49:46.746Z,5.40
2022-10-12T14:52:17.733Z,5.47
2022-10-12T14:54:49.674Z,4.63
2022-10-12T14:57:17.563Z,4.70
2022-10-12T14:59:44.707Z,6.23
2022-10-12T15:02:14.673Z,4.60
2022-10-12T15:04:41.798Z,5.50
2022-10-12T15:07:14.102Z,4.90
2022-10-12T15:09:41.362Z,4.57
2022-10-12T15:12:10.881Z,4.40
2022-10-12T15:14:37.991Z,5.93
2022-10-12T15:17:05.090Z,4.87
2022-10-12T15:19:32.171Z,5.10
2022-10-12T15:21:59.310Z,5.10
2022-10-12T15:24:26.412Z,5.40
2022-10-12T15:26:53.481Z,4.90
2022-10-12T15:29:21.930Z,4.70
2022-10-12T15:31:51.247Z,5.13
2022-10-12T15:34:18.477Z,5.00
2022-10-12T15:36:45.550Z,5.80
2022-10-12T15:39:12.645Z,5.73
2022-10-12T15:41:39.727Z,5.40
2022-10-12T15:44:07.204Z,4.97
2022-10-12T15:46:35.642Z,5.80
2022-10-12T15:49:02.739Z,5.87
2022-10-12T15:51:29.937Z,6.20
2022-10-12T15:53:57.006Z,5.90
2022-10-12T15:56:24.103Z,6.13
2022-10-12T15:58:51.383Z,5.70
2022-10-12T16:01:19.983Z,6.33
2022-10-12T16:03:49.103Z,5.23
2022-10-12T16:06:16.426Z,5.40
2022-10-12T16:08:43.743Z,6.33
2022-10-12T16:11:13.072Z,5.70
2022-10-12T16:13:46.835Z,6.20
2022-10-12T16:16:16.452Z,6.03
2022-10-12T16:18:43.578Z,6.90
2022-10-12T16:21:12.085Z,6.13
2022-10-12T16:23:39.831Z,6.77
2022-10-12T16:26:08.278Z,6.97
2022-10-12T16:28:35.741Z,5.63
2022-10-12T16:31:02.847Z,5.70
2022-10-12T16:33:29.986Z,5.93
2022-10-12T16:35:57.255Z,7.77
2022-10-12T16:38:25.727Z,5.93
2022-10-12T16:40:52.796Z,6.60
2022-10-12T16:43:19.898Z,6.70
2022-10-12T16:45:54.863Z,6.63
2022-10-12T16:48:21.960Z,6.60
2022-10-12T16:50:49.053Z,6.27
2022-10-12T16:53:16.141Z,6.07
2022-10-12T16:55:44.615Z,6.27
2022-10-12T16:58:11.728Z,5.77
2022-10-12T17:00:38.868Z,7.80
2022-10-12T17:03:06.004Z,6.30
2022-10-12T17:05:33.114Z,6.27
2022-10-12T17:08:00.398Z,6.50
2022-10-12T17:10:27.514Z,6.23
2022-10-12T17:12:55.937Z,6.20
2022-10-12T17:15:23.017Z,7.27
2022-10-12T17:17:50.163Z,6.60
2022-10-12T17:20:17.290Z,5.83
2022-10-12T17:22:44.373Z,7.10
2022-10-12T17:25:11.475Z,6.73
2022-10-12T17:27:38.638Z,6.50
2022-10-12T17:30:07.877Z,6.50
2022-10-12T17:32:34.952Z,7.30
2022-10-12T17:35:02.050Z,7.00
2022-10-12T17:37:29.151Z,6.30
2022-10-12T17:39:56.214Z,5.93
2022-10-12T17:42:23.309Z,6.70
2022-10-12T17:44:50.443Z,7.87
2022-10-12T17:47:19.164Z,7.53
2022-10-12T17:49:46.554Z,5.80
2022-10-12T17:52:13.751Z,6.57
2022-10-12T17:54:40.989Z,6.33
2022-10-12T17:57:08.057Z,7.70
2022-10-12T17:59:35.174Z,7.70
2022-10-12T18:02:02.267Z,7.33
2022-10-12T18:04:30.713Z,6.73
2022-10-12T18:06:57.776Z,7.83
2022-10-12T18:09:24.895Z,8.43
2022-10-12T18:11:52.070Z,7.10
2022-10-12T18:14:19.366Z,7.13
2022-10-12T18:16:46.471Z,8.20
2022-10-12T18:19:13.596Z,7.90
2022-10-12T18:21:42.085Z,7.83
2022-10-12T18:24:15.657Z,8.23
2022-10-12T18:26:43.824Z,8.00
2022-10-12T18:29:11.004Z,8.20
2022-10-12T18:31:38.095Z,8.20
2022-10-12T18:34:06.600Z,9.60
2022-10-12T18:36:33.807Z,9.10
2022-10-12T18:39:03.123Z,8.27
2022-10-12T18:41:30.605Z,10.10
2022-10-12T18:43:58.079Z,9.73
2022-10-12T18:46:26.092Z,8.77
2022-10-12T18:48:53.168Z,9.57
2022-10-12T18:51:21.366Z,8.60
2022-10-12T18:53:48.519Z,8.77
2022-10-12T18:56:17.126Z,9.40
2022-10-12T18:58:44.254Z,9.70
2022-10-12T19:01:11.830Z,9.20
2022-10-12T19:03:38.994Z,9.87
2022-10-12T19:06:06.918Z,9.37
2022-10-12T19:08:34.134Z,10.43
2022-10-12T19:11:01.208Z,8.90
2022-10-12T19:13:29.641Z,10.13
2022-10-12T19:15:56.729Z,10.20
2022-10-12T19:18:23.822Z,9.50
2022-10-12T19:20:50.933Z,10.23
2022-10-12T19:23:18.041Z,11.23
2022-10-12T19:25:45.129Z,10.03
2022-10-12T19:28:12.242Z,9.67
2022-10-12T19:30:40.708Z,10.40
2022-10-12T19:33:07.819Z,11.50
2022-10-12T19:35:36.777Z,9.80
2022-10-12T19:38:03.959Z,12.13
2022-10-12T19:40:31.070Z,11.17
2022-10-12T19:42:58.187Z,13.10
2022-10-12T19:45:25.241Z,11.47
2022-10-12T19:47:53.654Z,10.80
2022-10-12T19:50:20.753Z,11.20
2022-10-12T19:52:47.821Z,12.47
2022-10-12T19:55:14.931Z,11.73
2022-10-12T19:57:41.995Z,11.60
2022-10-12T20:00:09.894Z,12.17
2022-10-12T20:02:38.747Z,11.63
2022-10-12T20:05:07.541Z,11.13
2022-10-12T20:07:34.615Z,12.17
2022-10-12T20:10:01.761Z,12.37
2022-10-12T20:12:28.817Z,11.23
2022-10-12T20:14:55.909Z,13.43
2022-10-12T20:17:23.020Z,11.73
2022-10-12T20:19:50.106Z,11.57
2022-10-12T20:22:19.183Z,11.63
2022-10-12T20:24:46.589Z,13.00
2022-10-12T20:27:13.718Z,13.37
2022-10-12T20:29:40.849Z,11.20
2022-10-12T20:32:07.955Z,11.07
2022-10-12T20:34:35.113Z,11.83
2022-10-12T20:37:02.228Z,11.50
2022-10-12T20:39:30.673Z,11.33
2022-10-12T20:41:57.790Z,10.60
2022-10-12T20:44:24.848Z,11.30
2022-10-12T20:46:55.178Z,10.70
2022-10-12T20:49:22.245Z,10.47
2022-10-12T20:51:49.345Z,11.60
2022-10-12T20:54:16.628Z,11.87
2022-10-12T20:56:45.662Z,9.50
2022-10-12T20:59:12.791Z,10.60
2022-10-12T21:01:39.903Z,13.37
2022-10-12T21:04:06.982Z,10.73
2022-10-12T21:06:35.251Z,12.00
2022-10-12T21:09:02.502Z,10.30
2022-10-12T21:11:29.700Z,10.80
2022-10-12T21:13:58.239Z,11.80
2022-10-12T21:16:25.616Z,11.03
2022-10-12T21:18:54.017Z,13.40
2022-10-12T21:21:21.220Z,11.40
2022-10-12T21:23:51.974Z,12.70
2022-10-12T21:26:20.448Z,13.27
2022-10-12T21:28:47.689Z,11.23
2022-10-12T21:31:16.672Z,13.10
2022-10-12T21:33:43.886Z,13.10
2022-10-12T21:36:12.430Z,11.27
2022-10-12T21:38:39.775Z,13.50
2022-10-12T21:41:07.777Z,11.83
2022-10-12T21:43:34.863Z,12.00
2022-10-12T21:46:02.529Z,12.27
2022-10-12T21:48:31.842Z,12.93
2022-10-12T21:50:59.097Z,12.07
2022-10-12T21:53:26.206Z,13.53
2022-10-12T21:55:53.286Z,12.10
2022-10-12T21:58:20.420Z,14.07
2022-10-12T22:00:47.665Z,13.10
2022-10-12T22:03:14.831Z,14.57
2022-10-12T22:05:43.824Z,14.60
2022-10-12T22:08:11.454Z,13.17
2022-10-12T22:10:38.936Z,13.83
2022-10-12T22:13:06.103Z,12.43
2022-10-12T22:15:33.214Z,13.20
2022-10-12T22:18:10.274Z,13.50
2022-10-12T22:20:37.504Z,12.63
2022-10-12T22:23:06.126Z,14.83
2022-10-12T22:25:33.212Z,13.43
2022-10-12T22:28:00.280Z,13.07
2022-10-12T22:30:29.651Z,12.57
2022-10-12T22:32:56.734Z,14.10
2022-10-12T22:35:23.996Z,13.77
2022-10-12T22:37:51.085Z,13.90
2022-10-12T22:40:19.843Z,12.70
2022-10-12T22:42:46.928Z,15.20
2022-10-12T22:45:14.159Z,15.23
2022-10-12T22:47:41.322Z,13.37
2022-10-12T22:50:08.797Z,14.10
2022-10-12T22:52:35.871Z,13.87
2022-10-12T22:55:02.969Z,14.13
2022-10-12T22:57:31.677Z,14.10
2022-10-12T22:59:58.773Z,13.10
2022-10-12T23:02:31.330Z,14.70
2022-10-12T23:04:58.417Z,14.03
2022-10-12T23:07:25.502Z,13.07
2022-10-12T23:09:52.624Z,12.90
2022-10-12T23:12:20.173Z,12.50
2022-10-12T23:14:50.859Z,14.50
2022-10-12T23:17:17.937Z,13.03
2022-10-12T23:19:45.034Z,10.97
2022-10-12T23:22:12.177Z,13.87
2022-10-12T23:24:40.167Z,13.07
2022-10-12T23:27:07.236Z,12.80
2022-10-12T23:29:34.338Z,13.70
2022-10-12T23:32:02.756Z,12.10
2022-10-12T23:34:30.002Z,12.90
2022-10-12T23:36:57.082Z,12.30
2022-10-12T23:39:24.209Z,13.20
2022-10-12T23:41:51.316Z,13.50
2022-10-12T23:44:18.402Z,12.17
2022-10-12T23:46:45.542Z,13.70
2022-10-12T23:49:13.995Z,14.23
2022-10-12T23:51:41.128Z,14.43
2022-10-12T23:54:08.314Z,13.00
2022-10-12T23:56:35.408Z,13.27
2022-10-12T23:59:02.527Z,12.90
